createdAt,value
2018-07-26T00:01:02.938Z,44.39
2018-07-26T00:03:32.064Z,44.56
2018-07-26T00:06:01.156Z,44.12
2018-07-26T00:08:30.290Z,44.10
2018-07-26T00:10:59.320Z,44.02
2018-07-26T00:13:28.382Z,44.17
2018-07-26T00:15:57.476Z,44.65
2018-07-26T00:18:26.538Z,44.64
2018-07-26T00:20:55.598Z,44.32
2018-07-26T00:23:24.643Z,44.33
2018-07-26T00:25:53.848Z,44.59
2018-07-26T00:28:23.071Z,44.58
2018-07-26T00:30:52.264Z,44.94
2018-07-26T00:33:21.472Z,44.79
2018-07-26T00:35:50.580Z,44.85
2018-07-26T00:38:19.651Z,44.77
2018-07-26T00:40:48.856Z,44.89
2018-07-26T00:43:17.898Z,44.96
2018-07-26T00:45:46.968Z,45.08
2018-07-26T00:48:16.062Z,44.79
2018-07-26T00:50:45.176Z,44.83
2018-07-26T00:53:14.316Z,44.60
2018-07-26T00:55:43.516Z,45.07
2018-07-26T00:58:12.698Z,45.11
2018-07-26T01:00:41.822Z,44.88
2018-07-26T01:03:10.990Z,44.91
2018-07-26T01:05:40.194Z,44.90
2018-07-26T01:08:09.398Z,45.20
2018-07-26T01:10:38.491Z,45.33
2018-07-26T01:13:07.673Z,45.68
2018-07-26T01:15:36.774Z,45.29
2018-07-26T01:18:05.993Z,45.19
2018-07-26T01:20:35.082Z,44.99
2018-07-26T01:23:04.274Z,45.24
2018-07-26T01:25:33.924Z,45.53
2018-07-26T01:28:03.076Z,45.34
2018-07-26T01:30:32.187Z,45.62
2018-07-26T01:33:01.250Z,45.09
2018-07-26T01:35:30.406Z,45.19
2018-07-26T01:37:59.534Z,45.52
2018-07-26T01:40:28.542Z,44.96
2018-07-26T01:43:08.890Z,45.00
2018-07-26T01:45:38.034Z,45.30
2018-07-26T01:48:07.094Z,44.89
2018-07-26T01:50:36.200Z,45.22
2018-07-26T01:53:05.420Z,45.12
2018-07-26T01:55:34.486Z,45.11
2018-07-26T01:58:03.695Z,45.10
2018-07-26T02:00:32.887Z,45.36
2018-07-26T02:03:04.976Z,45.17
2018-07-26T02:05:34.271Z,45.32
2018-07-26T02:08:03.519Z,45.25
2018-07-26T02:10:32.642Z,44.93
2018-07-26T02:13:01.719Z,44.79
2018-07-26T02:15:30.835Z,44.82
2018-07-26T02:18:00.051Z,45.18
2018-07-26T02:20:29.143Z,44.74
2018-07-26T02:22:58.216Z,44.94
2018-07-26T02:25:27.523Z,45.28
2018-07-26T02:27:56.639Z,45.13
2018-07-26T02:30:25.705Z,44.61
2018-07-26T02:32:54.841Z,44.94
2018-07-26T02:35:23.896Z,44.96
2018-07-26T02:37:53.028Z,44.87
2018-07-26T02:40:22.124Z,44.75
2018-07-26T02:42:51.265Z,44.84
2018-07-26T02:45:20.399Z,44.78
2018-07-26T02:47:49.586Z,44.66
2018-07-26T02:50:18.759Z,44.41
2018-07-26T02:52:47.899Z,44.47
2018-07-26T02:55:16.967Z,44.57
2018-07-26T02:57:46.080Z,45.04
2018-07-26T03:00:15.187Z,44.54
2018-07-26T03:02:44.387Z,45.14
2018-07-26T03:05:13.503Z,44.93
2018-07-26T03:07:42.672Z,45.09
2018-07-26T03:10:11.763Z,44.82
2018-07-26T03:12:40.930Z,45.01
2018-07-26T03:15:10.287Z,45.09
2018-07-26T03:17:39.391Z,45.35
2018-07-26T03:20:08.531Z,45.35
2018-07-26T03:22:37.630Z,45.69
2018-07-26T03:25:06.869Z,45.03
2018-07-26T03:27:36.046Z,45.23
2018-07-26T03:30:05.871Z,45.20
2018-07-26T03:32:35.071Z,45.32
2018-07-26T03:35:04.277Z,45.83
2018-07-26T03:37:33.361Z,45.05
2018-07-26T03:40:02.746Z,45.07
2018-07-26T03:42:31.856Z,45.33
2018-07-26T03:45:01.028Z,45.47
2018-07-26T03:47:30.179Z,45.52
2018-07-26T03:49:59.251Z,45.41
2018-07-26T03:52:28.446Z,45.57
2018-07-26T03:54:57.647Z,45.22
2018-07-26T03:57:26.762Z,45.27
2018-07-26T03:59:55.931Z,45.61
2018-07-26T04:02:25.039Z,45.28
2018-07-26T04:04:54.249Z,45.13
2018-07-26T04:07:23.319Z,45.39
2018-07-26T04:09:52.395Z,45.12
2018-07-26T04:12:21.549Z,45.51
2018-07-26T04:14:50.629Z,44.94
2018-07-26T04:17:19.799Z,45.21
2018-07-26T04:19:48.907Z,45.42
2018-07-26T04:22:18.091Z,45.44
2018-07-26T04:24:47.201Z,45.37
2018-07-26T04:27:16.392Z,45.57
2018-07-26T04:29:45.492Z,45.46
2018-07-26T04:32:14.622Z,45.42
2018-07-26T04:34:43.864Z,45.65
2018-07-26T04:37:13.064Z,45.65
2018-07-26T04:39:42.175Z,45.64
2018-07-26T04:42:11.269Z,45.45
2018-07-26T04:44:40.483Z,45.45
2018-07-26T04:47:09.656Z,45.27
2018-07-26T04:49:38.763Z,45.58
2018-07-26T04:52:07.980Z,45.70
2018-07-26T04:54:37.232Z,45.75
2018-07-26T04:57:06.558Z,46.39
2018-07-26T04:59:35.648Z,46.38
2018-07-26T05:02:04.785Z,46.60
2018-07-26T05:04:33.877Z,46.87
2018-07-26T05:07:03.096Z,47.00
2018-07-26T05:09:32.212Z,46.75
2018-07-26T05:12:01.379Z,46.14
2018-07-26T05:14:30.450Z,46.24
2018-07-26T05:16:59.620Z,45.97
2018-07-26T05:19:28.712Z,46.30
2018-07-26T05:21:57.796Z,46.09
2018-07-26T05:24:26.932Z,46.40
2018-07-26T05:26:56.132Z,45.94
2018-07-26T05:29:25.334Z,46.23
2018-07-26T05:31:54.645Z,46.06
2018-07-26T05:34:23.712Z,46.12
2018-07-26T05:36:52.892Z,45.72
2018-07-26T05:39:21.961Z,46.06
2018-07-26T05:41:51.142Z,45.94
2018-07-26T05:44:20.194Z,46.15
2018-07-26T05:46:49.421Z,46.14
2018-07-26T05:49:18.488Z,46.16
2018-07-26T05:51:47.592Z,46.15
2018-07-26T05:54:16.736Z,46.09
2018-07-26T05:56:45.886Z,45.75
2018-07-26T05:59:14.958Z,45.55
2018-07-26T06:01:44.108Z,45.65
2018-07-26T06:04:13.198Z,46.03
2018-07-26T06:06:42.396Z,45.77
2018-07-26T06:09:12.436Z,45.98
2018-07-26T06:11:42.042Z,46.27
2018-07-26T06:14:11.132Z,46.25
2018-07-26T06:16:40.288Z,45.91
2018-07-26T06:19:09.487Z,46.19
2018-07-26T06:21:38.574Z,46.44
2018-07-26T06:24:07.646Z,46.01
2018-07-26T06:26:36.764Z,46.11
2018-07-26T06:29:06.144Z,45.87
2018-07-26T06:31:57.538Z,45.83
2018-07-26T06:34:26.616Z,46.24
2018-07-26T06:36:55.718Z,46.09
2018-07-26T06:39:24.916Z,45.54
2018-07-26T06:41:54.084Z,45.69
2018-07-26T06:44:23.194Z,45.89
2018-07-26T06:46:52.396Z,45.82
2018-07-26T06:49:21.571Z,45.64
2018-07-26T06:51:50.775Z,45.43
2018-07-26T06:54:19.868Z,45.64
2018-07-26T06:56:48.942Z,45.37
2018-07-26T06:59:18.053Z,45.44
2018-07-26T07:01:47.171Z,45.24
2018-07-26T07:04:16.416Z,45.36
2018-07-26T07:06:51.238Z,45.64
2018-07-26T07:09:20.360Z,45.31
2018-07-26T07:11:49.490Z,45.69
2018-07-26T07:14:18.798Z,45.58
2018-07-26T07:16:48.004Z,45.14
2018-07-26T07:19:17.191Z,44.94
2018-07-26T07:21:46.343Z,45.12
2018-07-26T07:24:20.490Z,45.17
2018-07-26T07:26:51.271Z,44.61
2018-07-26T07:29:21.471Z,45.17
2018-07-26T07:31:50.646Z,44.92
2018-07-26T07:34:19.865Z,45.30
2018-07-26T07:36:49.015Z,44.69
2018-07-26T07:39:18.120Z,44.48
2018-07-26T07:41:47.367Z,44.39
2018-07-26T07:44:16.742Z,44.54
2018-07-26T07:46:45.903Z,44.00
2018-07-26T07:49:15.032Z,44.46
2018-07-26T07:51:44.747Z,44.30
2018-07-26T07:54:13.939Z,44.50
2018-07-26T07:56:43.142Z,44.40
2018-07-26T07:59:12.307Z,44.10
2018-07-26T08:01:41.390Z,44.38
2018-07-26T08:04:10.638Z,44.05
2018-07-26T08:06:39.797Z,43.66
2018-07-26T08:09:11.122Z,43.82
2018-07-26T08:11:40.548Z,43.56
2018-07-26T08:14:10.308Z,44.00
2018-07-26T08:16:39.478Z,43.41
2018-07-26T08:19:08.622Z,43.29
2018-07-26T08:21:37.778Z,43.34
2018-07-26T08:24:06.992Z,43.34
2018-07-26T08:26:36.172Z,43.65
2018-07-26T08:29:05.498Z,43.24
2018-07-26T08:31:34.681Z,43.37
2018-07-26T08:34:03.792Z,43.40
2018-07-26T08:36:32.838Z,43.48
2018-07-26T08:39:01.908Z,43.34
2018-07-26T08:41:31.104Z,43.44
2018-07-26T08:44:00.278Z,43.13
2018-07-26T08:46:29.360Z,43.11
2018-07-26T08:48:58.473Z,43.25
2018-07-26T08:51:27.546Z,43.42
2018-07-26T08:53:56.639Z,43.32
2018-07-26T08:56:25.726Z,43.17
2018-07-26T08:58:55.767Z,43.57
2018-07-26T09:01:24.979Z,44.25
2018-07-26T09:03:54.144Z,44.99
2018-07-26T09:06:23.218Z,44.87
2018-07-26T09:08:52.357Z,45.15
2018-07-26T09:11:21.565Z,45.64
2018-07-26T09:13:50.730Z,45.22
2018-07-26T09:16:19.924Z,44.85
2018-07-26T09:18:49.015Z,44.66
2018-07-26T09:21:18.138Z,45.18
2018-07-26T09:23:47.244Z,45.12
2018-07-26T09:26:16.323Z,45.05
2018-07-26T09:28:45.647Z,44.91
2018-07-26T09:31:14.926Z,45.29
2018-07-26T09:33:44.007Z,45.45
2018-07-26T09:36:13.108Z,44.81
2018-07-26T09:38:42.315Z,44.53
2018-07-26T09:41:13.349Z,44.96
2018-07-26T09:43:43.246Z,45.02
2018-07-26T09:46:12.335Z,44.65
2018-07-26T09:48:41.408Z,44.60
2018-07-26T09:51:10.488Z,44.65
2018-07-26T09:53:39.648Z,44.73
2018-07-26T09:56:08.879Z,44.62
2018-07-26T09:58:38.031Z,44.55
2018-07-26T10:01:12.601Z,44.47
2018-07-26T10:03:41.755Z,44.29
2018-07-26T10:06:10.975Z,44.46
2018-07-26T10:08:40.191Z,44.70
2018-07-26T10:11:09.347Z,44.29
2018-07-26T10:13:38.553Z,44.39
2018-07-26T10:16:07.763Z,44.80
2018-07-26T10:18:36.991Z,45.11
2018-07-26T10:21:06.163Z,45.11
2018-07-26T10:23:35.356Z,44.92
2018-07-26T10:26:04.465Z,45.04
2018-07-26T10:28:33.495Z,45.19
2018-07-26T10:31:02.747Z,44.96
2018-07-26T10:33:31.950Z,44.45
2018-07-26T10:36:01.099Z,45.01
2018-07-26T10:38:30.230Z,44.95
2018-07-26T10:40:59.453Z,44.97
2018-07-26T10:43:28.649Z,44.90
2018-07-26T10:45:57.830Z,44.96
2018-07-26T10:48:27.022Z,45.03
2018-07-26T10:50:56.274Z,44.95
2018-07-26T10:53:25.412Z,44.95
2018-07-26T10:55:54.636Z,44.61
2018-07-26T10:58:23.798Z,44.77
2018-07-26T11:00:52.899Z,44.69
2018-07-26T11:03:22.773Z,44.84
2018-07-26T11:05:51.915Z,44.63
2018-07-26T11:08:21.282Z,44.98
2018-07-26T11:10:50.406Z,44.99
2018-07-26T11:13:19.472Z,44.87
2018-07-26T11:15:49.561Z,44.98
2018-07-26T11:18:18.703Z,44.65
2018-07-26T11:20:47.807Z,45.27
2018-07-26T11:23:16.879Z,44.97
2018-07-26T11:25:46.145Z,44.82
2018-07-26T11:28:15.414Z,44.64
2018-07-26T11:30:44.838Z,45.16
2018-07-26T11:33:13.915Z,45.10
2018-07-26T11:35:43.107Z,44.93
2018-07-26T11:38:12.314Z,45.05
2018-07-26T11:40:41.380Z,43.34
2018-07-26T11:43:10.487Z,44.59
2018-07-26T11:45:39.563Z,44.78
2018-07-26T11:48:08.679Z,44.73
2018-07-26T11:50:37.771Z,44.80
2018-07-26T11:53:06.998Z,44.64
2018-07-26T11:55:36.186Z,45.10
2018-07-26T11:58:05.515Z,45.16
2018-07-26T12:00:34.589Z,44.99
2018-07-26T12:03:03.995Z,44.73
2018-07-26T12:05:33.077Z,44.93
2018-07-26T12:08:02.280Z,44.34
2018-07-26T12:10:31.467Z,42.11
2018-07-26T12:13:01.594Z,44.80
2018-07-26T12:15:30.795Z,44.86
2018-07-26T12:17:59.921Z,44.79
2018-07-26T12:20:29.179Z,44.81
2018-07-26T12:22:58.280Z,44.97
2018-07-26T12:25:27.470Z,44.73
2018-07-26T12:27:56.539Z,43.63
2018-07-26T12:30:25.675Z,44.63
2018-07-26T12:32:54.778Z,44.17
2018-07-26T12:35:23.861Z,44.04
2018-07-26T12:37:52.935Z,44.41
2018-07-26T12:40:22.091Z,44.51
2018-07-26T12:42:51.225Z,44.62
2018-07-26T12:45:20.350Z,44.24
2018-07-26T12:47:50.583Z,44.53
2018-07-26T12:50:19.953Z,44.50
2018-07-26T12:52:49.075Z,44.38
2018-07-26T12:55:18.313Z,44.49
2018-07-26T12:57:47.419Z,44.51
2018-07-26T13:00:17.024Z,43.93
2018-07-26T13:02:46.173Z,44.28
2018-07-26T13:05:15.346Z,43.98
2018-07-26T13:07:44.439Z,44.26
2018-07-26T13:10:13.588Z,43.86
2018-07-26T13:12:42.765Z,44.72
2018-07-26T13:15:11.963Z,44.35
2018-07-26T13:17:41.139Z,44.50
2018-07-26T13:20:10.236Z,44.63
2018-07-26T13:22:39.361Z,41.94
2018-07-26T13:25:08.447Z,42.35
2018-07-26T13:27:37.659Z,43.53
2018-07-26T13:30:06.899Z,43.80
2018-07-26T13:32:36.018Z,43.62
2018-07-26T13:35:05.243Z,43.45
2018-07-26T13:37:34.434Z,43.63
2018-07-26T13:40:03.607Z,43.52
2018-07-26T13:42:32.953Z,43.54
2018-07-26T13:45:02.133Z,43.67
2018-07-26T13:47:31.331Z,43.41
2018-07-26T13:50:00.535Z,43.57
2018-07-26T13:52:29.734Z,43.60
2018-07-26T13:54:59.007Z,43.47
2018-07-26T13:57:28.523Z,43.58
2018-07-26T13:59:57.947Z,43.34
2018-07-26T14:02:27.613Z,43.67
2018-07-26T14:04:56.745Z,43.50
2018-07-26T14:07:25.942Z,43.23
2018-07-26T14:09:55.176Z,43.32
2018-07-26T14:12:24.439Z,43.51
2018-07-26T14:14:53.640Z,43.55
2018-07-26T14:17:22.838Z,43.51
2018-07-26T14:19:52.003Z,43.69
2018-07-26T14:22:21.120Z,43.85
2018-07-26T14:24:50.675Z,43.62
2018-07-26T14:27:19.845Z,43.77
2018-07-26T14:29:49.143Z,43.36
2018-07-26T14:32:18.327Z,44.11
2018-07-26T14:34:47.495Z,43.90
2018-07-26T14:37:16.955Z,43.57
2018-07-26T14:39:46.099Z,43.22
2018-07-26T14:42:15.230Z,43.89
2018-07-26T14:44:44.358Z,43.26
2018-07-26T14:47:13.587Z,43.39
2018-07-26T14:49:43.153Z,43.05
2018-07-26T14:52:12.291Z,42.88
2018-07-26T14:54:41.422Z,43.07
2018-07-26T14:57:10.548Z,42.78
2018-07-26T14:59:39.840Z,42.91
2018-07-26T15:02:09.015Z,42.74
2018-07-26T15:04:38.237Z,43.24
2018-07-26T15:07:07.439Z,42.99
2018-07-26T15:09:36.833Z,42.92
2018-07-26T15:12:06.111Z,43.58
2018-07-26T15:14:35.301Z,43.11
2018-07-26T15:17:05.557Z,42.93
2018-07-26T15:19:34.588Z,42.91
2018-07-26T15:22:03.727Z,42.93
2018-07-26T15:24:33.954Z,43.01
2018-07-26T15:27:03.269Z,42.64
2018-07-26T15:29:32.455Z,42.86
2018-07-26T15:32:01.644Z,43.11
2018-07-26T15:34:30.853Z,42.87
2018-07-26T15:37:00.044Z,43.85
2018-07-26T15:39:29.243Z,43.30
2018-07-26T15:41:58.312Z,43.08
2018-07-26T15:44:27.441Z,43.25
2018-07-26T15:46:56.643Z,43.00
2018-07-26T15:49:26.020Z,43.34
2018-07-26T15:51:55.239Z,43.61
2018-07-26T15:54:24.448Z,43.04
2018-07-26T15:56:53.595Z,43.69
2018-07-26T15:59:22.899Z,43.40
2018-07-26T16:01:52.023Z,43.46
2018-07-26T16:04:22.135Z,43.41
2018-07-26T16:06:51.362Z,43.45
2018-07-26T16:09:20.540Z,43.46
2018-07-26T16:11:49.730Z,43.36
2018-07-26T16:14:18.836Z,43.46
2018-07-26T16:16:48.039Z,43.41
2018-07-26T16:19:17.229Z,43.29
2018-07-26T16:21:46.323Z,43.58
2018-07-26T16:24:15.751Z,42.88
2018-07-26T16:26:44.896Z,43.20
2018-07-26T16:29:14.049Z,43.54
2018-07-26T16:31:43.158Z,42.94
2018-07-26T16:34:12.272Z,43.31
2018-07-26T16:36:41.384Z,43.12
2018-07-26T16:39:12.059Z,42.95
2018-07-26T16:41:41.211Z,42.76
2018-07-26T16:44:10.322Z,42.16
2018-07-26T16:46:39.485Z,41.93
2018-07-26T16:49:08.985Z,42.86
2018-07-26T16:51:38.133Z,41.60
2018-07-26T16:54:07.357Z,43.38
2018-07-26T16:56:36.517Z,44.28
2018-07-26T16:59:05.773Z,43.77
2018-07-26T17:01:34.933Z,43.48
2018-07-26T17:04:04.151Z,43.42
2018-07-26T17:06:33.333Z,43.45
2018-07-26T17:09:02.482Z,43.73
2018-07-26T17:11:31.620Z,43.50
2018-07-26T17:14:00.845Z,43.67
2018-07-26T17:16:29.992Z,43.30
2018-07-26T17:18:59.113Z,43.72
2018-07-26T17:21:28.512Z,43.30
2018-07-26T17:23:57.530Z,43.66
2018-07-26T17:26:26.688Z,43.47
2018-07-26T17:28:55.885Z,43.40
2018-07-26T17:31:25.208Z,43.25
2018-07-26T17:33:54.980Z,43.57
2018-07-26T17:36:24.148Z,43.85
2018-07-26T17:38:53.480Z,43.44
2018-07-26T17:41:22.598Z,43.15
2018-07-26T17:43:52.535Z,43.35
2018-07-26T17:46:21.836Z,43.71
2018-07-26T17:48:50.995Z,43.24
2018-07-26T17:51:20.119Z,41.43
2018-07-26T17:53:49.315Z,40.52
2018-07-26T17:56:18.493Z,42.95
2018-07-26T17:58:47.611Z,40.91
2018-07-26T18:01:16.781Z,40.37
2018-07-26T18:03:45.917Z,41.82
2018-07-26T18:06:15.123Z,41.90
2018-07-26T18:08:44.338Z,41.91
2018-07-26T18:11:13.495Z,41.40
2018-07-26T18:13:42.690Z,41.47
2018-07-26T18:16:12.098Z,42.27
2018-07-26T18:18:41.238Z,43.10
2018-07-26T18:25:48.126Z,43.54
2018-07-26T18:28:17.298Z,43.99
2018-07-26T18:30:46.514Z,44.17
2018-07-26T18:33:16.562Z,44.25
2018-07-26T18:35:45.711Z,44.42
2018-07-26T18:38:14.817Z,43.95
2018-07-26T18:40:44.194Z,44.06
2018-07-26T18:43:13.308Z,44.19
2018-07-26T18:45:42.502Z,44.61
2018-07-26T18:48:11.717Z,44.29
2018-07-26T18:50:40.893Z,44.53
2018-07-26T18:53:10.216Z,44.99
2018-07-26T18:55:39.393Z,45.37
2018-07-26T18:58:08.512Z,45.62
2018-07-26T19:00:37.711Z,46.28
2018-07-26T19:03:07.013Z,46.55
2018-07-26T19:05:36.215Z,47.14
2018-07-26T19:08:06.373Z,47.75
2018-07-26T19:10:35.565Z,48.04
2018-07-26T19:13:04.819Z,47.88
2018-07-26T19:15:33.993Z,48.80
2018-07-26T19:18:03.216Z,48.85
2018-07-26T19:20:32.394Z,49.58
2018-07-26T19:23:01.518Z,49.76
2018-07-26T19:25:30.696Z,50.81
2018-07-26T19:27:59.886Z,50.97
2018-07-26T19:30:29.158Z,50.52
2018-07-26T19:32:58.280Z,50.47
2018-07-26T19:35:27.435Z,50.12
2018-07-26T19:37:56.779Z,50.44
2018-07-26T19:40:25.866Z,50.62
2018-07-26T19:42:54.987Z,50.41
2018-07-26T19:45:24.200Z,49.87
2018-07-26T19:47:53.416Z,50.22
2018-07-26T19:50:22.547Z,50.27
2018-07-26T19:52:51.623Z,51.23
2018-07-26T19:55:20.760Z,51.62
2018-07-26T19:57:49.995Z,52.55
2018-07-26T20:00:19.184Z,51.87
2018-07-26T20:02:48.391Z,51.98
2018-07-26T20:05:17.691Z,51.68
2018-07-26T20:07:46.879Z,50.24
2018-07-26T20:10:16.042Z,50.40
2018-07-26T20:12:45.166Z,50.75
2018-07-26T20:15:14.322Z,50.67
2018-07-26T20:17:43.444Z,50.92
2018-07-26T20:20:12.974Z,51.60
2018-07-26T20:22:42.134Z,52.10
2018-07-26T20:25:11.276Z,52.00
2018-07-26T20:27:40.474Z,52.13
2018-07-26T20:30:10.393Z,52.57
2018-07-26T20:32:40.001Z,52.86
2018-07-26T20:35:09.645Z,52.84
2018-07-26T20:37:38.727Z,52.25
2018-07-26T20:40:11.145Z,50.56
2018-07-26T20:42:40.538Z,50.23
2018-07-26T20:45:11.044Z,50.12
2018-07-26T20:47:40.242Z,49.46
2018-07-26T20:50:10.052Z,49.09
2018-07-26T20:52:39.560Z,49.56
2018-07-26T20:55:08.702Z,50.32
2018-07-26T20:57:37.934Z,50.03
2018-07-26T21:00:09.326Z,50.53
2018-07-26T21:02:38.450Z,50.43
2018-07-26T21:05:07.614Z,50.16
2018-07-26T21:07:36.759Z,49.19
2018-07-26T21:10:07.115Z,47.77
2018-07-26T21:12:36.319Z,46.83
2018-07-26T21:15:06.653Z,46.27
2018-07-26T21:17:36.164Z,46.74
2018-07-26T21:20:05.553Z,46.67
2018-07-26T21:22:35.196Z,47.13
2018-07-26T21:25:04.466Z,48.60
2018-07-26T21:27:33.566Z,48.22
2018-07-26T21:30:02.686Z,48.00
2018-07-26T21:32:31.903Z,48.32
2018-07-26T21:35:01.088Z,48.91
2018-07-26T21:37:30.487Z,49.08
2018-07-26T21:39:59.675Z,49.80
2018-07-26T21:42:28.904Z,51.78
2018-07-26T21:44:58.037Z,48.14
2018-07-26T21:47:27.319Z,48.20
2018-07-26T21:49:56.446Z,48.87
2018-07-26T21:52:25.576Z,48.92
2018-07-26T21:54:54.750Z,48.65
2018-07-26T21:57:23.843Z,48.07
2018-07-26T21:59:52.942Z,47.97
2018-07-26T22:02:22.077Z,48.72
2018-07-26T22:04:51.347Z,47.58
2018-07-26T22:07:20.726Z,47.97
2018-07-26T22:09:49.847Z,48.11
2018-07-26T22:12:19.079Z,47.66
2018-07-26T22:14:48.374Z,47.92
2018-07-26T22:17:17.540Z,49.08
2018-07-26T22:19:46.685Z,47.23
2018-07-26T22:22:15.887Z,46.74
2018-07-26T22:24:45.080Z,46.22
2018-07-26T22:27:14.219Z,46.35
2018-07-26T22:29:43.539Z,46.54
2018-07-26T22:32:12.771Z,45.55
2018-07-26T22:34:41.955Z,46.16
2018-07-26T22:37:11.165Z,46.27
2018-07-26T22:39:40.319Z,46.03
2018-07-26T22:42:09.459Z,46.36
2018-07-26T22:44:38.610Z,46.13
2018-07-26T22:47:07.709Z,45.93
2018-07-26T22:49:36.796Z,46.19
2018-07-26T22:52:05.943Z,45.78
2018-07-26T22:54:35.115Z,46.09
2018-07-26T22:57:04.283Z,45.51
2018-07-26T22:59:33.379Z,45.71
2018-07-26T23:02:02.519Z,45.50
2018-07-26T23:04:31.618Z,45.22
2018-07-26T23:07:00.766Z,45.08
2018-07-26T23:09:29.826Z,45.04
2018-07-26T23:11:59.022Z,45.32
2018-07-26T23:14:28.200Z,45.42
2018-07-26T23:16:57.392Z,45.47
2018-07-26T23:19:26.569Z,46.18
2018-07-26T23:21:55.635Z,46.50
2018-07-26T23:24:24.776Z,46.39
2018-07-26T23:26:53.931Z,46.67
2018-07-26T23:29:23.055Z,46.49
2018-07-26T23:31:52.194Z,46.94
2018-07-26T23:34:21.357Z,47.14
2018-07-26T23:36:50.534Z,46.35
2018-07-26T23:39:19.683Z,45.63
2018-07-26T23:41:48.719Z,45.17
2018-07-26T23:44:17.830Z,44.59
2018-07-26T23:46:46.934Z,44.84
2018-07-26T23:49:16.020Z,44.63
2018-07-26T23:51:45.094Z,44.11
2018-07-26T23:54:14.167Z,44.08
2018-07-26T23:56:43.258Z,43.57
2018-07-26T23:59:12.442Z,43.54
